createdAt,value
2022-08-16T00:02:36.558Z,21.42
2022-08-16T00:05:17.541Z,21.33
2022-08-16T00:07:56.513Z,21.37
2022-08-16T00:10:31.533Z,21.34
2022-08-16T00:13:00.285Z,21.27
2022-08-16T00:15:51.482Z,21.29
2022-08-16T00:18:22.099Z,21.26
2022-08-16T00:21:01.530Z,21.21
2022-08-16T00:23:34.546Z,21.19
2022-08-16T00:26:36.074Z,21.11
2022-08-16T00:29:06.550Z,20.91
2022-08-16T00:32:00.024Z,20.80
2022-08-16T00:34:43.229Z,20.64
2022-08-16T00:37:20.320Z,20.56
2022-08-16T00:39:57.502Z,20.62
2022-08-16T00:42:32.563Z,20.59
2022-08-16T00:45:01.264Z,20.58
2022-08-16T00:47:39.703Z,20.53
2022-08-16T00:50:15.542Z,20.64
2022-08-16T00:52:45.821Z,20.68
2022-08-16T00:55:25.531Z,20.57
2022-08-16T00:58:12.898Z,20.48
2022-08-16T01:00:43.240Z,20.40
2022-08-16T01:03:17.699Z,20.52
2022-08-16T01:06:32.517Z,20.57
2022-08-16T01:09:06.430Z,20.58
2022-08-16T01:11:54.028Z,20.65
2022-08-16T01:14:30.251Z,20.66
2022-08-16T01:17:04.528Z,20.69
2022-08-16T01:19:38.108Z,20.62
2022-08-16T01:22:47.914Z,20.65
2022-08-16T01:25:23.511Z,20.68
2022-08-16T01:28:08.686Z,20.81
2022-08-16T01:30:40.166Z,20.77
2022-08-16T01:33:24.496Z,20.85
2022-08-16T01:36:09.331Z,20.88
2022-08-16T01:38:48.849Z,20.88
2022-08-16T01:41:29.682Z,20.91
2022-08-16T01:44:01.047Z,20.92
2022-08-16T01:46:43.509Z,20.96
2022-08-16T01:49:23.531Z,20.96
2022-08-16T01:52:28.016Z,21.03
2022-08-16T01:55:03.513Z,21.04
2022-08-16T01:57:31.718Z,20.89
2022-08-16T02:00:05.551Z,20.73
2022-08-16T02:02:45.483Z,20.76
2022-08-16T02:05:39.505Z,20.84
2022-08-16T02:08:32.694Z,20.81
2022-08-16T02:11:06.520Z,20.77
2022-08-16T02:13:41.949Z,20.83
2022-08-16T02:16:18.334Z,20.85
2022-08-16T02:18:52.501Z,20.85
2022-08-16T02:21:31.593Z,20.87
2022-08-16T02:24:30.743Z,20.90
2022-08-16T02:26:58.536Z,20.81
2022-08-16T02:29:31.991Z,20.85
2022-08-16T02:32:04.030Z,20.89
2022-08-16T02:34:56.537Z,20.90
2022-08-16T02:37:23.311Z,20.92
2022-08-16T02:39:56.934Z,20.91
2022-08-16T02:42:24.014Z,20.89
2022-08-16T02:44:57.500Z,20.94
2022-08-16T02:47:25.764Z,20.91
2022-08-16T02:50:55.529Z,20.99
2022-08-16T02:52:46.580Z,21.02
2022-08-16T02:55:41.125Z,20.99
2022-08-16T02:58:15.485Z,20.98
2022-08-16T03:00:45.343Z,20.97
2022-08-16T03:03:18.506Z,20.97
2022-08-16T03:06:36.418Z,20.97
2022-08-16T03:08:53.245Z,21.00
2022-08-16T03:11:27.534Z,21.06
2022-08-16T03:14:02.616Z,21.07
2022-08-16T03:16:42.224Z,21.05
2022-08-16T03:19:47.076Z,21.07
2022-08-16T03:22:27.749Z,21.07
2022-08-16T03:24:57.278Z,20.99
2022-08-16T03:27:32.371Z,20.98
2022-08-16T03:30:15.239Z,20.99
2022-08-16T03:32:45.014Z,20.97
2022-08-16T03:35:20.509Z,20.98
2022-08-16T03:38:01.474Z,20.92
2022-08-16T03:40:36.508Z,20.90
2022-08-16T03:43:20.281Z,20.86
2022-08-16T03:45:54.507Z,20.88
2022-08-16T03:48:31.613Z,20.82
2022-08-16T03:51:14.496Z,20.81
2022-08-16T03:53:42.118Z,20.80
2022-08-16T03:56:20.788Z,20.80
2022-08-16T03:58:55.488Z,20.81
2022-08-16T04:01:23.344Z,20.80
2022-08-16T04:03:57.531Z,20.81
2022-08-16T04:06:37.565Z,20.80
2022-08-16T04:09:12.397Z,20.73
2022-08-16T04:11:45.508Z,20.70
2022-08-16T04:14:33.088Z,20.68
2022-08-16T04:17:07.570Z,20.68
2022-08-16T04:19:35.501Z,20.71
2022-08-16T04:22:08.909Z,20.68
2022-08-16T04:24:36.365Z,20.71
2022-08-16T04:27:11.504Z,20.64
2022-08-16T04:29:44.575Z,20.63
2022-08-16T04:32:19.824Z,20.69
2022-08-16T04:34:47.671Z,20.71
2022-08-16T04:37:21.502Z,20.77
2022-08-16T04:39:57.012Z,20.86
2022-08-16T04:42:26.535Z,20.91
2022-08-16T04:45:04.600Z,20.99
2022-08-16T04:47:33.221Z,20.97
2022-08-16T04:50:15.508Z,20.91
2022-08-16T04:52:45.494Z,20.96
2022-08-16T04:55:31.926Z,20.96
2022-08-16T04:58:44.106Z,20.90
2022-08-16T05:00:59.485Z,20.81
2022-08-16T05:03:26.547Z,20.70
2022-08-16T05:06:09.276Z,20.77
2022-08-16T05:08:49.499Z,20.75
2022-08-16T05:11:32.183Z,20.68
2022-08-16T05:14:08.464Z,20.62
2022-08-16T05:16:35.721Z,20.56
2022-08-16T05:19:11.659Z,20.49
2022-08-16T05:21:39.511Z,20.30
2022-08-16T05:24:13.494Z,20.34
2022-08-16T05:26:49.571Z,20.24
2022-08-16T05:29:24.817Z,20.06
2022-08-16T05:31:58.483Z,20.07
2022-08-16T05:34:25.144Z,19.97
2022-08-16T05:36:59.494Z,19.97
2022-08-16T05:39:27.364Z,19.94
2022-08-16T05:42:01.494Z,19.89
2022-08-16T05:44:34.469Z,19.91
2022-08-16T05:47:01.631Z,19.94
2022-08-16T05:49:39.295Z,19.99
2022-08-16T05:52:10.613Z,19.98
2022-08-16T05:55:01.181Z,19.98
2022-08-16T05:57:34.375Z,20.12
2022-08-16T06:00:09.255Z,20.19
2022-08-16T06:02:36.840Z,20.14
2022-08-16T06:05:10.874Z,20.23
2022-08-16T06:07:44.577Z,20.27
2022-08-16T06:10:33.175Z,20.33
2022-08-16T06:13:00.139Z,20.24
2022-08-16T06:15:33.477Z,20.35
2022-08-16T06:18:01.839Z,20.36
2022-08-16T06:20:36.981Z,20.37
2022-08-16T06:23:24.062Z,20.38
2022-08-16T06:25:57.484Z,20.37
2022-08-16T06:28:36.667Z,20.40
2022-08-16T06:31:11.943Z,20.44
2022-08-16T06:33:42.106Z,20.46
2022-08-16T06:36:16.461Z,20.39
2022-08-16T06:38:55.767Z,20.43
2022-08-16T06:41:39.609Z,20.38
2022-08-16T06:44:06.898Z,20.46
2022-08-16T06:46:54.476Z,20.44
2022-08-16T06:49:21.066Z,20.41
2022-08-16T06:51:54.527Z,20.52
2022-08-16T06:54:31.324Z,20.60
2022-08-16T06:57:05.460Z,20.77
2022-08-16T06:59:52.453Z,20.72
2022-08-16T07:02:33.994Z,20.87
2022-08-16T07:05:20.455Z,20.96
2022-08-16T07:08:00.480Z,21.01
2022-08-16T07:10:28.067Z,21.12
2022-08-16T07:13:03.930Z,21.20
2022-08-16T07:15:35.269Z,21.25
2022-08-16T07:18:08.475Z,21.33
2022-08-16T07:20:48.028Z,21.47
2022-08-16T07:23:21.484Z,21.50
2022-08-16T07:26:25.500Z,21.62
2022-08-16T07:28:52.304Z,21.73
2022-08-16T07:31:37.852Z,21.78
2022-08-16T07:34:05.040Z,21.80
2022-08-16T07:36:45.114Z,21.87
2022-08-16T07:39:17.954Z,21.94
2022-08-16T07:41:51.452Z,22.01
2022-08-16T07:44:19.628Z,21.96
2022-08-16T07:46:56.314Z,22.09
2022-08-16T07:49:32.400Z,22.18
2022-08-16T07:52:18.671Z,22.31
2022-08-16T07:54:53.614Z,22.40
2022-08-16T07:57:26.477Z,22.38
2022-08-16T07:59:59.466Z,22.42
2022-08-16T08:02:27.419Z,22.42
2022-08-16T08:05:03.458Z,22.43
2022-08-16T08:07:36.829Z,22.51
2022-08-16T08:10:12.617Z,22.58
2022-08-16T08:12:59.347Z,22.59
2022-08-16T08:15:34.558Z,22.66
2022-08-16T08:18:29.328Z,22.73
2022-08-16T08:20:59.220Z,22.79
2022-08-16T08:23:35.451Z,22.88
2022-08-16T08:26:17.755Z,22.98
2022-08-16T08:28:51.456Z,22.95
2022-08-16T08:31:25.482Z,23.08
2022-08-16T08:33:57.140Z,23.13
2022-08-16T08:36:34.253Z,23.20
2022-08-16T08:39:12.993Z,23.28
2022-08-16T08:41:49.353Z,23.34
2022-08-16T08:44:28.563Z,23.37
2022-08-16T08:47:01.676Z,23.45
2022-08-16T08:49:46.740Z,23.43
2022-08-16T08:52:34.479Z,23.53
2022-08-16T08:55:19.450Z,23.58
2022-08-16T08:57:47.275Z,23.66
2022-08-16T09:00:22.457Z,23.75
2022-08-16T09:02:54.366Z,23.77
2022-08-16T09:05:35.991Z,23.79
2022-08-16T09:08:10.591Z,23.77
2022-08-16T09:10:46.604Z,23.79
2022-08-16T09:13:26.487Z,23.84
2022-08-16T09:16:06.479Z,23.87
2022-08-16T09:18:36.889Z,23.88
2022-08-16T09:21:13.446Z,23.94
2022-08-16T09:23:43.346Z,23.97
2022-08-16T09:26:44.167Z,24.11
2022-08-16T09:29:16.889Z,24.08
2022-08-16T09:31:57.478Z,24.15
2022-08-16T09:34:31.446Z,24.20
2022-08-16T09:37:00.231Z,24.29
2022-08-16T09:39:41.550Z,24.34
2022-08-16T09:42:15.604Z,24.42
2022-08-16T09:45:13.092Z,24.47
2022-08-16T09:47:57.292Z,24.51
2022-08-16T09:50:38.409Z,24.64
2022-08-16T09:53:15.432Z,24.71
2022-08-16T09:55:56.782Z,24.73
2022-08-16T09:58:37.846Z,24.70
2022-08-16T10:01:15.436Z,24.77
2022-08-16T10:04:01.785Z,24.80
2022-08-16T10:06:35.470Z,24.91
2022-08-16T10:09:16.458Z,24.95
2022-08-16T10:12:11.790Z,25.04
2022-08-16T10:14:52.469Z,25.06
2022-08-16T10:17:21.421Z,25.14
2022-08-16T10:19:59.465Z,25.20
2022-08-16T10:22:27.069Z,25.23
2022-08-16T10:25:00.475Z,25.31
2022-08-16T10:27:29.702Z,25.33
2022-08-16T10:30:26.086Z,25.46
2022-08-16T10:32:55.172Z,25.55
2022-08-16T10:35:32.595Z,25.56
2022-08-16T10:37:59.920Z,25.65
2022-08-16T10:40:33.463Z,25.71
2022-08-16T10:43:00.518Z,25.71
2022-08-16T10:45:28.600Z,25.82
2022-08-16T10:48:27.052Z,25.87
2022-08-16T10:51:05.501Z,25.99
2022-08-16T10:53:39.556Z,25.99
2022-08-16T10:56:52.334Z,26.15
2022-08-16T11:07:53.469Z,26.27
2022-08-16T11:17:00.728Z,26.59
2022-08-16T11:19:12.573Z,26.62
2022-08-16T11:24:42.135Z,26.69
2022-08-16T11:27:20.087Z,26.68
2022-08-16T11:29:55.831Z,26.57
2022-08-16T11:32:33.751Z,26.70
2022-08-16T11:35:14.682Z,26.79
2022-08-16T11:38:47.038Z,26.86
2022-08-16T11:40:55.499Z,26.78
2022-08-16T11:43:24.984Z,26.92
2022-08-16T11:46:01.417Z,27.01
2022-08-16T11:48:48.446Z,27.15
2022-08-16T11:51:21.423Z,27.26
2022-08-16T11:53:54.549Z,27.34
2022-08-16T11:56:39.486Z,27.32
2022-08-16T11:59:14.467Z,27.43
2022-08-16T12:01:55.044Z,27.49
2022-08-16T12:04:29.600Z,27.53
2022-08-16T12:07:11.447Z,27.52
2022-08-16T12:09:43.603Z,27.46
2022-08-16T12:12:18.515Z,27.53
2022-08-16T12:14:45.705Z,27.63
2022-08-16T12:17:19.425Z,27.73
2022-08-16T12:19:48.819Z,27.91
2022-08-16T12:22:23.434Z,27.94
2022-08-16T12:24:52.397Z,27.83
2022-08-16T12:27:26.595Z,27.93
2022-08-16T12:29:53.897Z,27.90
2022-08-16T12:32:37.382Z,28.02
2022-08-16T12:35:14.434Z,28.08
2022-08-16T12:37:42.839Z,28.20
2022-08-16T12:40:24.947Z,28.25
2022-08-16T12:42:58.715Z,28.38
2022-08-16T12:45:35.576Z,28.56
2022-08-16T12:48:35.576Z,28.65
2022-08-16T12:51:04.564Z,28.83
2022-08-16T12:53:45.451Z,28.90
2022-08-16T12:56:13.853Z,28.97
2022-08-16T12:58:50.447Z,28.94
2022-08-16T13:01:30.556Z,29.02
2022-08-16T13:04:12.180Z,29.42
2022-08-16T13:06:59.462Z,29.61
2022-08-16T13:09:42.180Z,29.93
2022-08-16T13:12:19.823Z,29.81
2022-08-16T13:14:53.430Z,30.09
2022-08-16T13:17:22.099Z,30.28
2022-08-16T13:20:07.214Z,30.67
2022-08-16T13:22:35.883Z,30.85
2022-08-16T13:25:09.439Z,30.78
2022-08-16T13:28:02.280Z,30.97
2022-08-16T13:30:37.759Z,31.21
2022-08-16T13:33:10.743Z,31.02
2022-08-16T13:35:55.829Z,31.49
2022-08-16T13:38:25.039Z,31.66
2022-08-16T13:41:02.449Z,31.50
2022-08-16T13:43:32.491Z,31.64
2022-08-16T13:46:09.498Z,31.80
2022-08-16T13:48:44.709Z,31.53
2022-08-16T13:51:16.639Z,31.46
2022-08-16T13:53:59.777Z,31.88
2022-08-16T13:56:36.947Z,31.90
2022-08-16T13:59:14.325Z,31.67
2022-08-16T14:01:56.460Z,32.06
2022-08-16T14:04:31.264Z,32.25
2022-08-16T14:07:12.415Z,32.44
2022-08-16T14:09:55.360Z,32.18
2022-08-16T14:12:38.442Z,32.29
2022-08-16T14:15:06.548Z,32.36
2022-08-16T14:18:15.275Z,32.41
2022-08-16T14:20:26.122Z,32.45
2022-08-16T14:23:00.441Z,32.34
2022-08-16T14:25:27.154Z,32.41
2022-08-16T14:28:01.433Z,32.06
2022-08-16T14:30:34.445Z,32.16
2022-08-16T14:33:08.419Z,32.16
2022-08-16T14:35:48.364Z,32.06
2022-08-16T14:38:24.446Z,31.90
2022-08-16T14:41:03.427Z,31.52
2022-08-16T14:43:33.591Z,31.50
2022-08-16T14:46:07.749Z,31.46
2022-08-16T14:48:42.439Z,31.14
2022-08-16T14:51:09.028Z,31.23
2022-08-16T14:53:45.118Z,31.19
2022-08-16T14:56:38.438Z,31.12
2022-08-16T14:59:11.426Z,31.02
2022-08-16T15:01:58.842Z,30.87
2022-08-16T15:04:40.248Z,30.78
2022-08-16T15:07:30.585Z,30.74
2022-08-16T15:10:12.081Z,30.64
2022-08-16T15:13:02.426Z,30.52
2022-08-16T15:15:30.860Z,30.42
2022-08-16T15:18:05.587Z,30.33
2022-08-16T15:20:33.734Z,30.34
2022-08-16T15:23:08.474Z,30.30
2022-08-16T15:25:41.450Z,30.21
2022-08-16T15:28:30.982Z,30.13
2022-08-16T15:31:06.252Z,30.01
2022-08-16T15:33:48.544Z,29.86
2022-08-16T15:36:19.270Z,29.78
2022-08-16T15:39:03.021Z,29.72
2022-08-16T15:41:35.898Z,29.77
2022-08-16T15:44:10.522Z,29.72
2022-08-16T15:46:56.150Z,29.65
2022-08-16T15:49:38.660Z,29.57
2022-08-16T15:52:24.927Z,29.58
2022-08-16T15:55:12.622Z,29.63
2022-08-16T15:57:46.416Z,29.68
2022-08-16T16:00:20.438Z,29.63
2022-08-16T16:02:53.450Z,29.48
2022-08-16T16:05:20.170Z,29.57
2022-08-16T16:08:11.756Z,29.55
2022-08-16T16:10:54.437Z,29.51
2022-08-16T16:13:31.421Z,29.51
2022-08-16T16:15:58.965Z,29.48
2022-08-16T16:18:32.426Z,29.46
2022-08-16T16:21:07.432Z,29.47
2022-08-16T16:23:35.895Z,29.43
2022-08-16T16:26:18.420Z,29.41
2022-08-16T16:29:08.104Z,29.42
2022-08-16T16:31:53.045Z,29.38
2022-08-16T16:34:32.320Z,29.38
2022-08-16T16:37:10.430Z,29.32
2022-08-16T16:39:44.533Z,29.34
2022-08-16T16:42:29.471Z,29.36
2022-08-16T16:45:14.436Z,29.38
2022-08-16T16:47:41.977Z,29.35
2022-08-16T16:50:19.418Z,29.42
2022-08-16T16:52:53.439Z,29.42
2022-08-16T16:55:20.594Z,29.42
2022-08-16T16:58:17.844Z,29.51
2022-08-16T17:01:03.695Z,29.59
2022-08-16T17:03:30.402Z,29.72
2022-08-16T17:06:10.190Z,29.65
2022-08-16T17:08:54.443Z,29.65
2022-08-16T17:11:21.140Z,29.58
2022-08-16T17:13:56.413Z,29.34
2022-08-16T17:16:32.751Z,29.24
2022-08-16T17:22:38.484Z,28.89
2022-08-16T17:25:13.429Z,28.76
2022-08-16T17:27:40.390Z,28.65
2022-08-16T17:30:17.475Z,28.48
2022-08-16T17:32:47.195Z,28.35
2022-08-16T17:35:22.918Z,28.19
2022-08-16T17:37:51.469Z,28.09
2022-08-16T17:40:47.469Z,27.95
2022-08-16T17:43:20.418Z,27.82
2022-08-16T17:45:53.417Z,27.69
2022-08-16T17:48:26.421Z,27.58
2022-08-16T17:50:54.777Z,27.47
2022-08-16T17:53:28.433Z,27.34
2022-08-16T17:56:01.451Z,27.22
2022-08-16T17:58:35.446Z,27.12
2022-08-16T18:01:08.455Z,27.01
2022-08-16T18:04:02.911Z,26.87
2022-08-16T18:06:36.433Z,26.75
2022-08-16T18:09:10.618Z,26.63
2022-08-16T18:11:49.436Z,26.52
2022-08-16T18:14:18.827Z,26.41
2022-08-16T18:17:12.453Z,26.31
2022-08-16T18:19:39.265Z,26.22
2022-08-16T18:22:30.585Z,26.13
2022-08-16T18:24:57.897Z,26.04
2022-08-16T18:27:31.608Z,25.95
2022-08-16T18:29:58.107Z,25.88
2022-08-16T18:32:31.432Z,25.81
2022-08-16T18:34:57.977Z,25.74
2022-08-16T18:37:31.452Z,25.70
2022-08-16T18:40:01.772Z,25.65
2022-08-16T18:42:34.463Z,25.58
2022-08-16T18:45:02.219Z,25.52
2022-08-16T18:47:31.852Z,25.46
2022-08-16T18:50:05.418Z,25.38
2022-08-16T18:52:38.451Z,25.30
2022-08-16T18:55:14.320Z,25.23
2022-08-16T18:57:55.436Z,25.15
2022-08-16T19:00:24.379Z,25.11
2022-08-16T19:02:59.229Z,25.05
2022-08-16T19:05:33.420Z,25.01
2022-08-16T19:08:07.473Z,24.97
2022-08-16T19:10:41.426Z,24.92
2022-08-16T19:13:16.415Z,24.89
2022-08-16T19:15:50.458Z,24.86
2022-08-16T19:18:23.434Z,24.82
2022-08-16T19:20:51.120Z,24.77
2022-08-16T19:23:22.128Z,24.72
2022-08-16T19:25:58.428Z,24.69
2022-08-16T19:28:57.835Z,24.65
2022-08-16T19:31:37.476Z,24.60
2022-08-16T19:34:04.482Z,24.57
2022-08-16T19:36:43.445Z,24.54
2022-08-16T19:39:13.827Z,24.50
2022-08-16T19:41:53.977Z,24.45
2022-08-16T19:44:22.398Z,24.40
2022-08-16T19:46:55.406Z,24.38
2022-08-16T19:49:22.015Z,24.34
2022-08-16T19:51:55.454Z,24.26
2022-08-16T19:54:22.150Z,24.16
2022-08-16T19:56:55.429Z,24.11
2022-08-16T19:59:40.000Z,24.05
2022-08-16T20:02:32.611Z,24.02
2022-08-16T20:05:09.408Z,24.00
2022-08-16T20:07:42.541Z,24.01
2022-08-16T20:10:16.402Z,24.00
2022-08-16T20:12:43.059Z,23.98
2022-08-16T20:15:35.791Z,23.93
2022-08-16T20:18:04.639Z,23.91
2022-08-16T20:20:56.415Z,23.81
2022-08-16T20:23:25.379Z,23.77
2022-08-16T20:25:59.381Z,23.74
2022-08-16T20:28:51.884Z,23.71
2022-08-16T20:31:27.397Z,23.66
2022-08-16T20:33:54.382Z,23.63
2022-08-16T20:36:21.113Z,23.62
2022-08-16T20:38:55.426Z,23.58
2022-08-16T20:41:21.936Z,23.54
2022-08-16T20:43:55.415Z,23.49
2022-08-16T20:46:22.358Z,23.39
2022-08-16T20:48:55.414Z,23.35
2022-08-16T20:51:22.054Z,23.34
2022-08-16T20:53:55.424Z,23.29
2022-08-16T20:56:21.991Z,23.29
2022-08-16T20:58:55.397Z,23.24
2022-08-16T21:01:22.265Z,23.20
2022-08-16T21:03:55.415Z,23.14
2022-08-16T21:06:42.413Z,23.08
2022-08-16T21:09:39.400Z,22.99
2022-08-16T21:12:17.976Z,22.94
2022-08-16T21:14:45.055Z,22.89
2022-08-16T21:17:19.401Z,22.87
2022-08-16T21:19:46.108Z,22.84
2022-08-16T21:22:19.391Z,22.81
2022-08-16T21:24:46.825Z,22.77
2022-08-16T21:27:20.413Z,22.73
2022-08-16T21:29:48.941Z,22.70
2022-08-16T21:32:35.115Z,22.66
2022-08-16T21:35:10.380Z,22.61
2022-08-16T21:37:43.397Z,22.58
2022-08-16T21:40:37.398Z,22.53
2022-08-16T21:43:13.421Z,22.50
2022-08-16T21:45:40.973Z,22.47
2022-08-16T21:48:07.929Z,22.44
2022-08-16T21:50:42.393Z,22.42
2022-08-16T21:53:08.951Z,22.35
2022-08-16T21:55:43.389Z,22.33
2022-08-16T21:58:10.442Z,22.27
2022-08-16T22:00:44.396Z,22.25
2022-08-16T22:03:11.386Z,22.24
2022-08-16T22:05:46.586Z,22.19
2022-08-16T22:08:49.885Z,22.16
2022-08-16T22:11:25.403Z,22.13
2022-08-16T22:13:58.793Z,22.08
2022-08-16T22:16:43.389Z,22.03
2022-08-16T22:19:10.190Z,21.97
2022-08-16T22:21:43.493Z,21.95
2022-08-16T22:24:10.430Z,21.94
2022-08-16T22:26:44.448Z,21.92
2022-08-16T22:29:13.674Z,21.92
2022-08-16T22:31:47.434Z,21.88
2022-08-16T22:34:20.442Z,21.90
2022-08-16T22:36:53.460Z,21.88
2022-08-16T22:39:26.501Z,21.83
2022-08-16T22:41:59.461Z,21.80
2022-08-16T22:44:32.482Z,21.75
2022-08-16T22:46:59.201Z,21.70
2022-08-16T22:49:32.374Z,21.66
2022-08-16T22:52:06.198Z,21.64
2022-08-16T22:54:48.611Z,21.62
2022-08-16T22:57:15.772Z,21.68
2022-08-16T22:59:48.427Z,21.65
2022-08-16T23:02:19.539Z,21.65
2022-08-16T23:04:52.460Z,21.59
2022-08-16T23:07:25.528Z,21.52
2022-08-16T23:09:58.468Z,21.49
2022-08-16T23:12:31.586Z,21.46
2022-08-16T23:15:02.850Z,21.46
2022-08-16T23:17:30.753Z,21.44
2022-08-16T23:20:03.424Z,21.39
2022-08-16T23:23:20.583Z,21.37
2022-08-16T23:25:38.413Z,21.34
2022-08-16T23:28:05.904Z,21.32
2022-08-16T23:30:40.730Z,21.33
2022-08-16T23:33:09.901Z,21.30
2022-08-16T23:35:45.979Z,21.27
2022-08-16T23:38:38.127Z,21.24
2022-08-16T23:41:09.171Z,21.25
2022-08-16T23:43:48.401Z,21.21
2022-08-16T23:46:17.297Z,21.20
2022-08-16T23:49:58.038Z,21.16
2022-08-16T23:51:44.373Z,21.06
2022-08-16T23:54:18.413Z,21.02
2022-08-16T23:56:51.384Z,20.98
2022-08-16T23:59:18.248Z,20.95
